Terminal Aerodrome Forecast
Issued by NWS Albany, NY

Home | Current Version | Previous Version | Text Only | Print | Product List | Glossary On
Versions: 1 2 3 4 5 6 7 8 9 10 11 12 13 14 15 16 17 18 19 20 21 22
000
FTUS41 KALY 020201 AAA
TAFALB
TAF AMD
KALB 020201Z 0202/0224 17010KT 2SM -SN BR SCT015 OVC025
      TEMPO 0202/0204 1SM -SN BR BKN015 OVC025
     FM020400 18007KT 4SM -SN BR BKN025 OVC040
     FM020700 27010KT P6SM VCSH SCT025 OVC035
     FM021400 29015G25KT P6SM BKN050=

USA.gov is the U.S. government's official web portal to all federal, state and local government web resources and services.